Time;durP1;ratioP1;P1;durP2;ratioP2;P2;SDS_P1;SDS_P2;PMS_P1;PMS_P2;Temp;Humidity;BMP_temperature;BMP_pressure;BME280_temperature;BME280_humidity;BME280_pressure;Samples;Min_cycle;Max_cycle;Signal;HPM_P1;HPM_P2
2023/03/07 00:00:01;;;;;;;33.70;21.50;;;2.80;99.90;;;;;;5034065;28;20034;-50
2023/03/07 00:02:50;;;;;;;36.13;22.50;;;2.90;99.90;;;;;;5034292;28;20034;-53
2023/03/07 00:05:36;;;;;;;35.67;21.48;;;2.90;99.90;;;;;;5032805;28;20080;-53
2023/03/07 00:08:22;;;;;;;30.92;21.05;;;3.00;99.90;;;;;;5019552;28;20029;-49
2023/03/07 00:11:09;;;;;;;37.00;21.35;;;2.90;99.90;;;;;;5033418;28;20132;-53
2023/03/07 00:13:55;;;;;;;35.00;23.02;;;2.90;99.90;;;;;;5033753;28;20128;-49
2023/03/07 00:16:41;;;;;;;35.22;21.52;;;2.90;99.90;;;;;;5030863;28;20030;-49
2023/03/07 00:19:27;;;;;;;30.15;20.02;;;3.00;99.90;;;;;;5025856;28;20025;-49
2023/03/07 00:22:13;;;;;;;35.67;20.90;;;3.00;99.90;;;;;;5033295;28;20044;-49
2023/03/07 00:24:58;;;;;;;34.92;21.73;;;3.00;99.90;;;;;;5034187;28;20036;-50
2023/03/07 00:27:44;;;;;;;34.95;22.40;;;3.00;99.90;;;;;;5032961;28;20112;-52
2023/03/07 00:30:30;;;;;;;36.28;22.88;;;3.00;99.90;;;;;;5033290;28;20390;-54
2023/03/07 00:33:16;;;;;;;38.00;21.88;;;3.10;99.90;;;;;;5033179;28;20079;-47
2023/03/07 00:36:07;;;;;;;33.90;20.98;;;3.00;99.90;;;;;;5032225;28;20033;-48
2023/03/07 00:38:53;;;;;;;34.55;21.35;;;3.10;99.90;;;;;;5020195;28;20022;-55
2023/03/07 00:41:39;;;;;;;36.85;21.95;;;3.00;99.90;;;;;;5016603;28;20029;-49
2023/03/07 00:44:28;;;;;;;36.80;21.23;;;3.00;99.90;;;;;;5033713;28;20241;-54
2023/03/07 00:47:14;;;;;;;34.25;21.13;;;3.00;99.90;;;;;;5032952;28;20105;-47
2023/03/07 00:50:00;;;;;;;32.72;21.05;;;3.00;99.90;;;;;;5016989;28;20096;-48
2023/03/07 00:52:46;;;;;;;34.58;21.42;;;3.00;99.90;;;;;;5013379;28;20034;-49
2023/03/07 00:55:32;;;;;;;31.95;20.52;;;3.00;99.90;;;;;;5032409;28;20061;-47
2023/03/07 00:58:18;;;;;;;34.22;21.85;;;3.00;99.90;;;;;;5019480;28;20064;-53
2023/03/07 01:01:05;;;;;;;36.45;20.80;;;3.10;99.90;;;;;;5032236;28;20025;-48
2023/03/07 01:03:52;;;;;;;33.55;20.20;;;3.00;99.90;;;;;;5033021;28;20029;-47
2023/03/07 01:06:38;;;;;;;29.48;18.80;;;3.00;99.90;;;;;;5033007;28;20413;-54
2023/03/07 01:09:24;;;;;;;31.55;19.13;;;3.00;99.90;;;;;;5033484;28;20493;-50
2023/03/07 01:12:10;;;;;;;28.92;18.52;;;3.10;99.90;;;;;;5032800;28;20033;-52
2023/03/07 01:14:56;;;;;;;28.48;17.85;;;2.90;99.90;;;;;;5017792;28;20593;-53
2023/03/07 01:17:42;;;;;;;29.10;18.92;;;2.90;99.90;;;;;;5004497;28;20560;-52
2023/03/07 01:20:30;;;;;;;31.35;18.60;;;3.00;99.90;;;;;;5016956;28;20572;-48
2023/03/07 01:23:16;;;;;;;28.77;17.25;;;3.00;99.90;;;;;;5032352;28;20063;-48
2023/03/07 01:26:03;;;;;;;26.80;17.77;;;3.00;99.90;;;;;;5032234;28;20105;-51
2023/03/07 01:28:51;;;;;;;27.00;17.50;;;3.00;99.90;;;;;;5018060;28;20033;-50
2023/03/07 01:31:37;;;;;;;29.95;18.00;;;3.00;99.90;;;;;;5032766;28;20409;-49
2023/03/07 01:34:23;;;;;;;28.60;18.33;;;2.90;99.90;;;;;;5031097;28;20113;-54
2023/03/07 01:37:08;;;;;;;29.88;17.55;;;3.00;99.90;;;;;;5032443;28;20033;-58
2023/03/07 01:39:54;;;;;;;27.73;17.20;;;3.00;99.90;;;;;;5015854;28;20068;-48
2023/03/07 01:42:40;;;;;;;27.92;17.48;;;3.00;99.90;;;;;;5033254;28;20079;-48
2023/03/07 01:45:32;;;;;;;29.90;17.77;;;3.00;99.90;;;;;;5033194;28;20099;-49
2023/03/07 01:48:18;;;;;;;28.30;16.90;;;2.90;99.90;;;;;;5031979;28;20025;-47
2023/03/07 01:51:04;;;;;;;33.20;21.17;;;3.00;99.90;;;;;;5032609;28;20405;-47
2023/03/07 01:53:54;;;;;;;28.55;18.95;;;3.00;99.90;;;;;;5018044;28;20668;-47
2023/03/07 01:56:40;;;;;;;27.75;19.85;;;3.00;99.90;;;;;;5012186;28;20038;-52
2023/03/07 01:59:40;;;;;;;30.92;19.88;;;3.10;99.90;;;;;;5015489;28;20065;-46
2023/03/07 02:02:28;;;;;;;30.77;19.00;;;3.10;99.90;;;;;;5026554;28;20022;-46
2023/03/07 02:05:24;;;;;;;28.73;19.13;;;3.10;99.90;;;;;;5021502;28;20058;-53
2023/03/07 02:08:13;;;;;;;30.83;18.83;;;3.10;99.90;;;;;;5032408;28;20167;-52
2023/03/07 02:10:59;;;;;;;31.85;19.55;;;3.10;99.90;;;;;;5032153;28;20486;-49
2023/03/07 02:13:45;;;;;;;32.53;20.20;;;3.10;99.90;;;;;;5032030;28;20144;-48
2023/03/07 02:16:31;;;;;;;26.90;18.50;;;3.10;99.90;;;;;;5032318;28;20130;-48
2023/03/07 02:19:40;;;;;;;32.47;19.88;;;3.00;99.90;;;;;;5031872;28;20029;-53
2023/03/07 02:22:26;;;;;;;35.33;20.35;;;3.00;99.90;;;;;;5032212;28;20036;-52
2023/03/07 02:25:28;;;;;;;27.40;17.92;;;3.00;99.90;;;;;;5031387;28;20112;-47
2023/03/07 02:28:16;;;;;;;29.58;19.52;;;3.10;99.90;;;;;;5012304;28;20915;-52
2023/03/07 02:31:05;;;;;;;30.80;19.60;;;3.00;99.90;;;;;;5013816;28;20071;-53
2023/03/07 02:33:51;;;;;;;30.45;18.15;;;3.00;99.90;;;;;;5031870;28;20112;-47
2023/03/07 02:36:37;;;;;;;30.60;19.10;;;3.00;99.90;;;;;;5031992;28;20033;-48
2023/03/07 02:39:25;;;;;;;30.33;18.75;;;3.00;99.90;;;;;;5017682;28;20095;-50
2023/03/07 02:42:25;;;;;;;31.35;18.65;;;3.00;99.90;;;;;;5031632;28;20405;-48
2023/03/07 02:45:14;;;;;;;29.48;18.40;;;3.10;99.90;;;;;;5028688;28;20105;-48
2023/03/07 02:48:01;;;;;;;28.27;17.85;;;3.10;99.90;;;;;;5019922;28;20094;-46
2023/03/07 02:50:50;;;;;;;30.20;18.38;;;3.10;99.90;;;;;;5016372;28;20026;-55
2023/03/07 02:53:36;;;;;;;30.50;18.83;;;3.10;99.90;;;;;;5031660;28;20030;-46
2023/03/07 02:56:22;;;;;;;28.45;17.52;;;3.10;99.90;;;;;;5031099;28;20104;-48
2023/03/07 02:59:08;;;;;;;26.55;16.75;;;3.20;99.90;;;;;;5016137;28;20026;-50
2023/03/07 03:01:54;;;;;;;28.45;18.83;;;3.10;99.90;;;;;;5030354;28;20124;-46
2023/03/07 03:04:40;;;;;;;28.90;17.80;;;3.20;99.90;;;;;;5030889;28;20505;-46
2023/03/07 03:07:26;;;;;;;26.00;16.58;;;3.10;99.90;;;;;;5031095;28;20052;-49
2023/03/07 03:10:12;;;;;;;29.52;16.42;;;3.10;99.90;;;;;;5031015;28;20022;-46
2023/03/07 03:12:58;;;;;;;26.20;17.67;;;3.10;99.90;;;;;;5031078;28;20041;-49
2023/03/07 03:15:44;;;;;;;27.70;16.83;;;3.10;99.90;;;;;;5035030;28;20134;-47
2023/03/07 03:18:31;;;;;;;30.88;16.80;;;3.10;99.90;;;;;;5034565;28;20034;-50
2023/03/07 03:21:16;;;;;;;27.65;17.33;;;3.10;99.90;;;;;;5032689;28;20030;-47
2023/03/07 03:24:06;;;;;;;26.77;16.33;;;3.20;99.90;;;;;;5034975;28;20025;-49
2023/03/07 03:26:56;;;;;;;27.52;16.52;;;3.10;99.90;;;;;;5034692;28;20028;-49
2023/03/07 03:29:42;;;;;;;25.33;16.38;;;3.10;99.90;;;;;;5034519;28;20029;-52
2023/03/07 03:32:28;;;;;;;26.25;16.98;;;3.00;99.90;;;;;;5034024;28;20497;-49
2023/03/07 03:35:14;;;;;;;25.13;16.38;;;3.10;99.90;;;;;;5034390;28;20034;-53
2023/03/07 03:38:00;;;;;;;25.52;16.33;;;3.10;99.90;;;;;;5033348;28;20041;-56
2023/03/07 03:40:46;;;;;;;27.30;16.95;;;3.10;99.90;;;;;;5004543;28;20495;-54
2023/03/07 03:43:33;;;;;;;25.85;15.98;;;3.10;99.90;;;;;;5026922;28;20061;-46
2023/03/07 03:46:19;;;;;;;24.45;15.98;;;3.20;99.90;;;;;;5033387;28;20401;-49
2023/03/07 03:49:05;;;;;;;27.10;16.25;;;3.20;99.90;;;;;;5019112;28;20104;-48
2023/03/07 03:51:51;;;;;;;26.13;17.38;;;3.10;99.90;;;;;;5027234;28;20046;-47
2023/03/07 03:54:37;;;;;;;23.50;15.38;;;3.20;99.90;;;;;;5033734;28;20060;-49
2023/03/07 03:57:23;;;;;;;26.15;16.27;;;3.20;99.90;;;;;;5033924;28;20033;-50
2023/03/07 04:00:13;;;;;;;25.67;16.70;;;3.10;99.90;;;;;;5034096;28;20474;-52
2023/03/07 04:02:59;;;;;;;24.60;15.88;;;3.10;99.90;;;;;;5034007;28;20065;-52
2023/03/07 04:05:44;;;;;;;24.40;16.30;;;3.10;99.90;;;;;;5019132;28;20030;-48
2023/03/07 04:08:32;;;;;;;25.13;14.95;;;3.10;99.90;;;;;;5033836;28;20103;-47
2023/03/07 04:11:18;;;;;;;25.55;15.18;;;3.10;99.90;;;;;;5018852;28;20037;-48
2023/03/07 04:14:04;;;;;;;24.15;15.45;;;3.10;99.90;;;;;;5033928;28;20555;-47
2023/03/07 04:16:50;;;;;;;25.98;16.27;;;3.10;99.90;;;;;;5032122;28;20067;-50
2023/03/07 04:19:37;;;;;;;26.48;15.70;;;3.20;99.90;;;;;;5028166;28;20033;-46
2023/03/07 04:22:23;;;;;;;25.23;16.13;;;3.20;99.90;;;;;;5010535;28;20033;-47
2023/03/07 04:25:09;;;;;;;22.42;14.75;;;3.20;99.90;;;;;;5013263;28;20029;-47
2023/03/07 04:27:55;;;;;;;27.42;15.90;;;3.10;99.90;;;;;;5015468;28;20029;-49
2023/03/07 04:30:41;;;;;;;25.88;16.25;;;3.10;99.90;;;;;;5016432;28;20350;-51
2023/03/07 04:33:27;;;;;;;26.15;16.60;;;3.10;99.90;;;;;;5030444;28;20104;-53
2023/03/07 04:36:17;;;;;;;27.58;16.48;;;3.10;99.90;;;;;;5015991;28;20018;-53
2023/03/07 04:39:03;;;;;;;27.75;16.48;;;3.10;99.90;;;;;;5023229;28;20370;-49
2023/03/07 04:41:49;;;;;;;22.17;15.15;;;3.00;99.90;;;;;;5019455;28;20544;-49
2023/03/07 04:44:35;;;;;;;30.50;16.55;;;3.10;99.90;;;;;;5032462;28;20052;-53
2023/03/07 04:47:21;;;;;;;28.48;16.25;;;3.10;99.90;;;;;;5014567;28;20025;-49
2023/03/07 04:50:07;;;;;;;23.42;15.25;;;3.20;99.90;;;;;;5031521;28;20022;-49
2023/03/07 04:52:53;;;;;;;24.42;14.50;;;3.10;99.90;;;;;;5030924;28;20069;-48
2023/03/07 04:55:39;;;;;;;24.60;14.95;;;3.10;99.90;;;;;;5018407;28;20033;-53
2023/03/07 04:58:29;;;;;;;26.05;16.27;;;3.00;99.90;;;;;;5028909;28;20091;-50
2023/03/07 05:01:15;;;;;;;26.70;16.33;;;2.90;99.90;;;;;;5031353;28;20405;-49
2023/03/07 05:04:01;;;;;;;26.10;15.73;;;2.80;99.90;;;;;;5031292;28;20036;-48
2023/03/07 05:06:47;;;;;;;25.20;15.38;;;2.80;99.90;;;;;;4999530;28;20075;-49
2023/03/07 05:09:33;;;;;;;22.08;14.32;;;2.80;99.90;;;;;;5012341;28;20030;-54
2023/03/07 05:12:19;;;;;;;26.15;15.73;;;2.80;99.90;;;;;;5014510;28;20033;-55
2023/03/07 05:15:05;;;;;;;26.55;15.82;;;2.80;99.90;;;;;;5032790;28;20025;-54
2023/03/07 05:17:51;;;;;;;21.83;14.32;;;2.80;99.90;;;;;;5031757;28;20067;-50
2023/03/07 05:20:37;;;;;;;25.52;15.93;;;2.80;99.90;;;;;;5031660;28;20041;-53
2023/03/07 05:23:23;;;;;;;25.25;16.13;;;2.80;99.90;;;;;;5032670;28;20029;-55
2023/03/07 05:26:09;;;;;;;24.35;14.95;;;2.80;99.90;;;;;;4998629;28;20034;-48
2023/03/07 05:28:55;;;;;;;22.98;15.93;;;2.80;99.90;;;;;;5014240;28;20151;-49
2023/03/07 05:31:41;;;;;;;23.17;14.10;;;2.90;99.90;;;;;;5032432;28;20037;-48
2023/03/07 05:34:27;;;;;;;22.60;14.32;;;3.00;99.90;;;;;;5031955;28;20501;-49
2023/03/07 05:37:13;;;;;;;23.30;14.23;;;3.00;99.90;;;;;;5003832;28;20111;-47
2023/03/07 05:39:59;;;;;;;21.50;13.80;;;3.10;99.90;;;;;;5031367;28;20033;-50
2023/03/07 05:42:45;;;;;;;21.08;13.35;;;3.10;99.90;;;;;;5031878;28;20025;-47
2023/03/07 05:45:31;;;;;;;22.63;13.07;;;3.10;99.90;;;;;;5027977;28;20379;-51
2023/03/07 05:48:17;;;;;;;22.45;12.95;;;3.20;99.90;;;;;;5015457;28;20053;-54
2023/03/07 05:51:03;;;;;;;23.08;14.02;;;3.20;99.90;;;;;;5029076;28;20029;-50
2023/03/07 05:53:49;;;;;;;19.13;12.68;;;3.20;99.90;;;;;;5014399;28;20026;-46
2023/03/07 05:56:36;;;;;;;18.63;12.55;;;3.20;99.90;;;;;;5018747;28;20426;-53
2023/03/07 05:59:22;;;;;;;21.85;14.00;;;3.30;99.90;;;;;;5031167;28;20030;-49
2023/03/07 06:02:08;;;;;;;18.33;11.52;;;3.20;99.90;;;;;;5016995;28;20124;-51
2023/03/07 06:04:54;;;;;;;19.92;11.95;;;3.30;99.90;;;;;;5014151;28;20084;-52
2023/03/07 06:07:40;;;;;;;17.33;11.95;;;3.30;99.90;;;;;;5019636;28;20108;-47
2023/03/07 06:10:26;;;;;;;19.50;12.15;;;3.40;99.90;;;;;;5020789;28;20105;-49
2023/03/07 06:13:16;;;;;;;18.42;11.95;;;3.30;99.90;;;;;;5011151;28;20030;-52
2023/03/07 06:16:02;;;;;;;20.35;12.23;;;3.30;99.90;;;;;;5021931;28;20029;-53
2023/03/07 06:18:48;;;;;;;20.25;11.85;;;3.30;99.90;;;;;;5008324;28;20125;-47
2023/03/07 06:21:34;;;;;;;17.08;11.15;;;3.30;99.90;;;;;;5022580;28;20421;-47
2023/03/07 06:24:20;;;;;;;17.95;11.75;;;3.30;99.90;;;;;;5030257;28;20094;-47
2023/03/07 06:27:06;;;;;;;17.88;11.05;;;3.40;99.90;;;;;;5015718;28;20126;-48
2023/03/07 06:29:52;;;;;;;14.35;9.93;;;3.30;99.90;;;;;;5030641;28;20516;-57
2023/03/07 06:32:38;;;;;;;16.73;10.70;;;3.30;99.90;;;;;;5020002;28;20033;-49
2023/03/07 06:35:23;;;;;;;15.30;10.77;;;3.30;99.90;;;;;;5031185;28;20026;-54
2023/03/07 06:38:11;;;;;;;15.30;9.75;;;3.40;99.90;;;;;;5030412;28;20029;-62
2023/03/07 06:40:57;;;;;;;15.65;10.45;;;3.50;99.90;;;;;;5031822;28;20037;-56
2023/03/07 06:43:43;;;;;;;18.08;10.70;;;3.50;99.90;;;;;;5031846;28;20033;-47
2023/03/07 06:46:29;;;;;;;18.17;10.93;;;3.50;99.90;;;;;;5029947;28;20042;-45
2023/03/07 06:49:15;;;;;;;15.57;10.60;;;3.50;99.90;;;;;;5032400;28;20525;-53
2023/03/07 06:52:01;;;;;;;20.35;10.73;;;3.60;99.90;;;;;;5034479;28;20038;-47
2023/03/07 06:54:47;;;;;;;17.88;10.98;;;3.60;99.90;;;;;;5020627;28;20033;-48
2023/03/07 06:57:33;;;;;;;21.10;12.65;;;3.70;99.90;;;;;;5035894;28;20115;-50
2023/03/07 07:00:21;;;;;;;16.42;10.35;;;3.60;99.90;;;;;;5035945;28;20032;-52
2023/03/07 07:03:15;;;;;;;16.67;10.68;;;3.60;99.90;;;;;;5035753;28;20139;-50
2023/03/07 07:06:02;;;;;;;16.02;9.95;;;3.60;99.90;;;;;;5034402;28;20025;-52
2023/03/07 07:08:48;;;;;;;14.43;10.15;;;3.70;99.90;;;;;;5035763;28;20087;-45
2023/03/07 07:11:34;;;;;;;12.48;8.38;;;3.70;99.90;;;;;;5027710;28;20120;-46
2023/03/07 07:14:20;;;;;;;16.67;11.48;;;3.80;99.90;;;;;;5034811;28;20022;-49
2023/03/07 07:17:06;;;;;;;14.93;9.55;;;3.80;99.90;;;;;;5033676;28;20033;-48
2023/03/07 07:19:52;;;;;;;13.73;9.20;;;3.80;99.90;;;;;;5024231;28;20026;-53
2023/03/07 07:22:38;;;;;;;15.60;9.25;;;3.90;99.90;;;;;;5020909;28;20070;-50
2023/03/07 07:25:24;;;;;;;15.38;10.13;;;3.90;99.90;;;;;;5025013;28;20112;-48
2023/03/07 07:28:10;;;;;;;12.35;8.93;;;3.90;99.90;;;;;;5022322;28;20053;-48
2023/03/07 07:30:56;;;;;;;12.73;9.30;;;3.90;99.90;;;;;;5034085;28;20029;-58
2023/03/07 07:33:42;;;;;;;11.77;9.18;;;3.80;99.90;;;;;;5021946;28;20025;-47
2023/03/07 07:36:28;;;;;;;13.02;9.38;;;3.80;99.90;;;;;;5024333;28;20176;-48
2023/03/07 07:39:16;;;;;;;13.98;8.85;;;3.80;99.90;;;;;;5021591;28;20028;-47
2023/03/07 07:42:02;;;;;;;13.88;9.02;;;3.80;99.90;;;;;;5031368;28;20406;-48
2023/03/07 07:44:48;;;;;;;13.23;8.18;;;3.80;99.90;;;;;;5034089;28;20506;-46
2023/03/07 07:47:34;;;;;;;11.60;8.90;;;3.90;99.90;;;;;;5034080;28;20051;-47
2023/03/07 07:50:21;;;;;;;13.00;8.65;;;4.00;99.90;;;;;;5034821;28;20045;-49
2023/03/07 07:53:07;;;;;;;12.57;8.68;;;4.10;99.90;;;;;;5025338;28;20410;-50
2023/03/07 07:55:53;;;;;;;12.05;8.80;;;4.20;99.90;;;;;;5035034;28;20083;-52
2023/03/07 07:58:39;;;;;;;11.30;7.45;;;4.20;99.90;;;;;;5034008;28;20035;-53
2023/03/07 08:01:25;;;;;;;13.45;8.43;;;4.20;99.90;;;;;;5032293;28;20079;-46
2023/03/07 08:04:11;;;;;;;10.85;7.72;;;4.20;99.90;;;;;;5033911;28;20045;-47
2023/03/07 08:06:57;;;;;;;10.05;7.25;;;4.20;99.90;;;;;;5034109;28;20029;-45
2023/03/07 08:09:43;;;;;;;11.63;8.23;;;4.30;99.90;;;;;;5033536;28;20129;-47
2023/03/07 08:12:29;;;;;;;11.38;8.30;;;4.30;99.90;;;;;;5033089;28;20032;-50
2023/03/07 08:15:15;;;;;;;12.35;8.07;;;4.30;99.90;;;;;;5033313;28;20083;-50
2023/03/07 08:18:01;;;;;;;12.80;8.20;;;4.40;99.90;;;;;;5033328;28;20036;-46
2023/03/07 08:20:47;;;;;;;10.00;7.38;;;4.40;99.90;;;;;;5030656;28;20524;-49
2023/03/07 08:23:34;;;;;;;9.77;7.35;;;4.40;99.90;;;;;;5024478;28;20078;-47
2023/03/07 08:26:21;;;;;;;11.80;8.27;;;4.50;99.90;;;;;;5029253;28;20029;-45
2023/03/07 08:29:07;;;;;;;10.80;7.95;;;4.50;99.90;;;;;;5025424;28;20025;-54
2023/03/07 08:31:53;;;;;;;12.10;7.90;;;4.60;99.90;;;;;;5021482;28;20030;-49
2023/03/07 08:34:39;;;;;;;13.77;7.53;;;4.60;99.90;;;;;;5013183;28;20431;-52
2023/03/07 08:37:25;;;;;;;10.95;8.10;;;4.70;99.90;;;;;;5013398;28;20499;-52
2023/03/07 08:40:13;;;;;;;11.80;7.63;;;4.70;99.90;;;;;;5012550;28;20030;-52
2023/03/07 08:42:59;;;;;;;11.68;7.93;;;4.70;99.90;;;;;;5014020;28;20087;-49
2023/03/07 08:45:49;;;;;;;13.18;8.57;;;4.70;99.90;;;;;;5013532;28;20140;-56
2023/03/07 08:48:35;;;;;;;10.93;7.55;;;4.80;99.90;;;;;;5013706;28;20026;-46
2023/03/07 08:51:22;;;;;;;12.38;8.75;;;4.80;99.90;;;;;;5012830;28;20029;-48
2023/03/07 08:54:08;;;;;;;11.18;7.95;;;4.80;99.90;;;;;;5012713;28;20102;-50
2023/03/07 08:56:54;;;;;;;11.65;8.80;;;4.70;99.90;;;;;;5012951;28;20038;-48
2023/03/07 08:59:40;;;;;;;11.77;8.23;;;4.80;99.90;;;;;;5013266;28;20030;-54
2023/03/07 09:02:26;;;;;;;11.90;8.60;;;4.90;99.90;;;;;;5013435;28;20092;-56
2023/03/07 09:05:12;;;;;;;12.52;9.07;;;4.90;99.90;;;;;;5012329;28;20092;-51
2023/03/07 09:07:58;;;;;;;12.30;9.25;;;4.90;99.90;;;;;;5006823;28;20034;-50
2023/03/07 09:10:44;;;;;;;11.73;9.05;;;4.90;99.90;;;;;;5013069;28;20112;-48
2023/03/07 09:13:30;;;;;;;11.57;9.02;;;4.90;99.90;;;;;;5012248;28;20022;-49
2023/03/07 09:16:16;;;;;;;12.80;8.93;;;4.90;99.90;;;;;;5018833;28;20029;-46
2023/03/07 09:19:02;;;;;;;12.73;9.88;;;4.90;99.90;;;;;;5017476;28;20117;-47
2023/03/07 09:21:49;;;;;;;12.07;9.75;;;5.00;99.90;;;;;;5011762;28;20030;-57
2023/03/07 09:24:34;;;;;;;11.75;9.50;;;5.00;99.90;;;;;;5012948;28;20026;-54
2023/03/07 09:27:20;;;;;;;12.98;9.50;;;5.10;99.90;;;;;;5012196;28;20483;-55
2023/03/07 09:30:07;;;;;;;15.02;9.95;;;5.00;99.90;;;;;;5013608;28;20160;-48
2023/03/07 09:32:53;;;;;;;15.18;9.95;;;5.10;99.90;;;;;;5012235;28;20026;-49
2023/03/07 09:35:39;;;;;;;14.90;10.57;;;5.10;99.90;;;;;;5017783;28;20513;-53
2023/03/07 09:38:25;;;;;;;13.25;10.07;;;5.20;99.90;;;;;;5031857;28;20447;-53
2023/03/07 09:41:17;;;;;;;15.85;10.70;;;5.20;99.90;;;;;;5031614;28;20026;-55
2023/03/07 09:44:37;;;;;;;14.27;10.60;;;5.20;99.90;;;;;;5017229;28;20022;-51
2023/03/07 09:47:32;;;;;;;15.23;10.93;;;5.30;99.90;;;;;;5031825;28;20041;-51
2023/03/07 09:50:39;;;;;;;14.40;10.45;;;5.30;99.90;;;;;;5017469;28;20028;-51
2023/03/07 09:53:40;;;;;;;16.30;11.10;;;5.30;99.90;;;;;;5031507;28;20039;-46
2023/03/07 09:56:31;;;;;;;14.88;10.88;;;5.40;99.90;;;;;;5032079;28;20105;-49
2023/03/07 09:59:34;;;;;;;15.25;11.48;;;5.30;99.90;;;;;;5017327;28;20041;-46
2023/03/07 10:02:31;;;;;;;15.85;11.10;;;5.30;99.90;;;;;;5025939;28;20033;-48
2023/03/07 10:05:38;;;;;;;14.75;11.48;;;5.30;99.90;;;;;;5010283;28;20038;-47
2023/03/07 10:08:29;;;;;;;13.20;10.38;;;5.30;99.90;;;;;;5011522;28;20041;-60
2023/03/07 10:11:33;;;;;;;15.30;11.23;;;5.20;99.90;;;;;;5010458;28;20018;-53
2023/03/07 10:14:24;;;;;;;17.02;11.93;;;5.30;99.90;;;;;;5012089;28;20025;-53
2023/03/07 10:17:50;;;;;;;16.60;12.70;;;5.20;99.90;;;;;;5025199;28;20022;-56
2023/03/07 10:20:51;;;;;;;17.77;11.73;;;5.30;99.90;;;;;;5027400;28;20437;-54
2023/03/07 10:24:01;;;;;;;19.25;13.00;;;5.30;99.90;;;;;;5030077;28;20249;-53
2023/03/07 10:27:08;;;;;;;17.20;11.75;;;5.40;99.90;;;;;;5034510;28;20025;-51
2023/03/07 10:29:58;;;;;;;18.00;11.88;;;5.30;99.90;;;;;;5028715;28;20049;-55
2023/03/07 10:32:58;;;;;;;17.30;11.93;;;5.30;99.90;;;;;;5030376;28;20398;-54
2023/03/07 10:35:53;;;;;;;16.35;11.35;;;5.40;99.90;;;;;;5030422;28;20083;-49
2023/03/07 10:38:49;;;;;;;16.10;11.63;;;5.50;99.90;;;;;;5029280;28;20521;-51
2023/03/07 10:41:35;;;;;;;15.05;11.30;;;5.50;99.90;;;;;;5029727;28;20088;-52
2023/03/07 10:44:22;;;;;;;16.23;11.82;;;5.70;99.90;;;;;;5029348;28;20025;-52
2023/03/07 10:47:19;;;;;;;16.60;11.50;;;6.10;99.90;;;;;;5030216;28;20192;-53
2023/03/07 10:50:32;;;;;;;17.75;12.25;;;6.00;99.90;;;;;;5028110;28;20516;-52
2023/03/07 10:53:26;;;;;;;16.23;12.20;;;5.90;99.90;;;;;;5030017;28;20037;-50
2023/03/07 10:56:14;;;;;;;16.20;12.25;;;5.80;99.90;;;;;;5027975;28;20501;-57
2023/03/07 10:59:02;;;;;;;17.80;11.90;;;6.00;99.90;;;;;;5026933;28;20045;-58
2023/03/07 11:01:55;;;;;;;17.23;12.55;;;6.10;99.90;;;;;;5027746;28;20486;-54
2023/03/07 11:04:44;;;;;;;16.75;11.20;;;6.10;99.90;;;;;;5029845;28;20014;-55
2023/03/07 11:07:33;;;;;;;17.00;13.10;;;6.10;99.90;;;;;;5026385;28;20060;-56
2023/03/07 11:10:40;;;;;;;17.02;11.38;;;6.10;99.90;;;;;;5030206;28;20061;-54
2023/03/07 11:13:27;;;;;;;16.88;11.25;;;6.20;99.90;;;;;;5018026;28;20033;-59
2023/03/07 11:16:13;;;;;;;18.05;11.27;;;6.20;99.90;;;;;;5010985;28;20549;-57
2023/03/07 11:18:59;;;;;;;14.52;11.25;;;6.30;99.90;;;;;;5025914;28;20589;-55
2023/03/07 11:21:54;;;;;;;16.38;11.65;;;6.20;99.90;;;;;;5022128;28;20041;-56
2023/03/07 11:24:49;;;;;;;15.07;11.38;;;6.30;99.90;;;;;;5029666;28;20033;-56
2023/03/07 11:27:44;;;;;;;15.30;10.65;;;6.30;99.90;;;;;;5016225;28;20108;-56
2023/03/07 11:30:42;;;;;;;14.20;10.05;;;6.30;99.90;;;;;;5030222;28;20516;-57
2023/03/07 11:33:51;;;;;;;15.25;10.93;;;6.40;99.90;;;;;;5029424;28;20033;-57
2023/03/07 11:36:39;;;;;;;15.35;10.65;;;6.50;99.90;;;;;;5019591;28;20025;-54
2023/03/07 11:39:37;;;;;;;15.15;10.13;;;6.50;99.90;;;;;;5034441;28;20026;-59
2023/03/07 11:42:31;;;;;;;14.02;10.55;;;6.60;99.90;;;;;;5033548;28;20033;-57
2023/03/07 11:45:33;;;;;;;14.43;10.50;;;6.60;99.90;;;;;;5033869;28;20445;-54
2023/03/07 11:48:35;;;;;;;14.93;10.60;;;6.80;99.90;;;;;;5034150;28;20108;-58
2023/03/07 11:51:42;;;;;;;17.55;10.80;;;6.80;99.90;;;;;;5034663;28;20104;-57
2023/03/07 11:54:49;;;;;;;14.35;10.43;;;6.80;99.90;;;;;;5033801;28;20505;-54
2023/03/07 11:57:57;;;;;;;13.20;9.40;;;6.70;99.90;;;;;;5033209;28;20043;-56
2023/03/07 12:00:58;;;;;;;14.95;9.32;;;6.60;99.90;;;;;;5005806;28;20037;-53
2023/03/07 12:04:13;;;;;;;13.80;10.43;;;6.60;99.90;;;;;;5032724;28;20048;-60
2023/03/07 12:07:16;;;;;;;13.82;9.73;;;6.60;99.90;;;;;;5034117;28;20037;-54
2023/03/07 12:10:20;;;;;;;14.45;10.43;;;6.60;99.90;;;;;;5033047;28;20032;-57
2023/03/07 12:13:12;;;;;;;13.93;9.98;;;6.60;99.90;;;;;;5033318;28;20108;-55
2023/03/07 12:16:18;;;;;;;16.65;10.45;;;6.60;99.90;;;;;;5032553;28;20032;-54
2023/03/07 12:19:25;;;;;;;14.25;9.43;;;6.60;99.90;;;;;;5033582;28;20024;-52
2023/03/07 12:22:27;;;;;;;15.70;10.30;;;6.60;99.90;;;;;;5032534;28;20394;-52
2023/03/07 12:25:28;;;;;;;15.25;10.25;;;6.60;99.90;;;;;;5033565;28;20022;-52
2023/03/07 12:28:20;;;;;;;14.55;10.93;;;6.60;99.90;;;;;;5032943;28;20033;-55
2023/03/07 12:31:16;;;;;;;11.27;8.95;;;6.50;99.90;;;;;;5033063;28;20017;-56
2023/03/07 12:34:14;;;;;;;15.07;11.07;;;6.60;99.90;;;;;;5033583;28;20104;-56
2023/03/07 12:37:16;;;;;;;15.30;10.10;;;6.50;99.90;;;;;;5032778;28;20029;-53
2023/03/07 12:40:12;;;;;;;17.20;10.27;;;6.60;99.90;;;;;;5033286;28;20389;-54
2023/03/07 12:43:26;;;;;;;;;;;6.60;99.90;;;;;;5034921;28;20045;-54
2023/03/07 12:46:37;;;;;;;13.82;9.77;;;6.60;99.90;;;;;;5012538;28;19975;-55
2023/03/07 12:49:27;;;;;;;15.38;10.52;;;6.70;99.90;;;;;;5012041;28;20021;-54
2023/03/07 12:52:35;;;;;;;16.35;11.55;;;6.80;99.90;;;;;;5012354;28;20025;-51
2023/03/07 12:55:36;;;;;;;14.93;10.02;;;6.70;99.90;;;;;;5011315;28;20041;-49
2023/03/07 12:58:34;;;;;;;14.55;11.02;;;6.70;99.90;;;;;;5012270;28;20022;-51
2023/03/07 13:01:33;;;;;;;13.35;9.90;;;6.80;99.90;;;;;;5012556;28;20025;-55
2023/03/07 13:04:34;;;;;;;14.82;10.55;;;6.80;99.90;;;;;;5013562;28;20029;-50
2023/03/07 13:07:28;;;;;;;16.10;10.48;;;6.70;99.90;;;;;;5012974;28;20037;-52
2023/03/07 13:10:19;;;;;;;15.03;11.13;;;6.70;99.90;;;;;;4999106;28;20022;-54
2023/03/07 13:13:43;;;;;;;17.48;10.38;;;6.70;99.90;;;;;;4998734;28;20702;-50
2023/03/07 13:16:50;;;;;;;14.38;10.50;;;6.70;99.90;;;;;;5011301;28;20061;-51
2023/03/07 13:19:37;;;;;;;17.05;11.23;;;6.70;99.90;;;;;;5012072;28;20034;-52
2023/03/07 13:22:23;;;;;;;19.02;10.82;;;6.70;99.90;;;;;;5012086;28;20163;-52
2023/03/07 13:25:21;;;;;;;14.57;10.02;;;6.70;99.90;;;;;;5011814;28;20054;-50
2023/03/07 13:28:42;;;;;;;12.48;10.45;;;6.70;99.90;;;;;;5011602;28;20045;-54
2023/03/07 13:31:37;;;;;;;14.93;10.52;;;6.70;99.90;;;;;;5012084;28;20022;-53
2023/03/07 13:34:45;;;;;;;15.77;10.30;;;6.70;99.90;;;;;;5011964;28;20493;-49
2023/03/07 13:37:47;;;;;;;12.88;10.13;;;6.70;99.90;;;;;;5012983;28;20486;-55
2023/03/07 13:40:45;;;;;;;14.68;10.40;;;6.70;99.90;;;;;;5012644;28;20030;-53
2023/03/07 13:43:53;;;;;;;8.20;4.70;;;6.80;99.90;;;;;;5011852;28;20037;-52
2023/03/07 13:46:42;;;;;;;6.43;4.07;;;6.20;99.90;;;;;;5011335;28;20081;-51
2023/03/07 13:49:39;;;;;;;7.18;4.18;;;5.10;99.90;;;;;;5010777;28;20028;-54
2023/03/07 13:52:33;;;;;;;6.25;4.38;;;4.70;99.90;;;;;;5010947;28;20021;-53
2023/03/07 13:55:23;;;;;;;6.00;3.60;;;4.60;99.90;;;;;;5011455;28;20034;-54
2023/03/07 13:58:37;;;;;;;4.05;2.75;;;4.50;99.90;;;;;;5010327;28;20030;-54
2023/03/07 14:01:39;;;;;;;3.30;2.40;;;4.00;99.90;;;;;;5012809;28;20332;-56
2023/03/07 14:04:34;;;;;;;4.82;2.60;;;3.80;99.90;;;;;;5011642;28;20029;-59
2023/03/07 14:07:26;;;;;;;4.75;2.97;;;3.70;99.90;;;;;;5010400;28;20518;-49
2023/03/07 14:10:23;;;;;;;2.92;2.22;;;3.50;99.90;;;;;;5011392;28;20487;-51
2023/03/07 14:13:33;;;;;;;3.08;2.03;;;3.50;99.90;;;;;;5011473;28;20101;-52
2023/03/07 14:16:30;;;;;;;2.50;2.00;;;3.40;99.90;;;;;;5010022;28;20421;-65
2023/03/07 14:19:40;;;;;;;3.60;2.22;;;3.30;99.90;;;;;;5011828;28;20545;-56
2023/03/07 14:22:33;;;;;;;3.60;2.10;;;3.20;99.90;;;;;;5012426;28;20117;-57
2023/03/07 14:25:30;;;;;;;3.65;2.10;;;3.20;99.90;;;;;;5024556;28;20020;-57
2023/03/07 14:28:27;;;;;;;2.25;2.00;;;3.20;99.90;;;;;;5030888;28;20022;-57
2023/03/07 14:31:24;;;;;;;2.38;2.17;;;3.20;99.90;;;;;;5016403;28;20512;-50
2023/03/07 14:34:25;;;;;;;2.90;2.13;;;3.30;99.90;;;;;;5030499;28;20087;-58
2023/03/07 14:37:26;;;;;;;2.20;2.00;;;3.30;99.90;;;;;;5035349;28;20042;-60
2023/03/07 14:40:39;;;;;;;3.97;2.20;;;3.10;99.90;;;;;;5027055;28;20064;-53